Time;durP1;ratioP1;P1;durP2;ratioP2;P2;SDS_P1;SDS_P2;PMS_P1;PMS_P2;Temp;Humidity;BMP_temperature;BMP_pressure;BME280_temperature;BME280_humidity;BME280_pressure;Samples;Min_cycle;Max_cycle;Signal;HPM_P1;HPM_P2
2022/11/20 00:00:55;;;;;;;19.85;18.05;;;;;;;7.48;58.66;101190.03;5032967;28;20025;-69
2022/11/20 00:03:21;;;;;;;17.77;16.35;;;;;;;7.46;58.78;101189.41;5053082;28;20037;-68
2022/11/20 00:05:46;;;;;;;19.13;17.55;;;;;;;7.46;58.66;101192.09;5041743;28;20116;-68
2022/11/20 00:08:12;;;;;;;18.42;17.02;;;;;;;7.44;58.62;101194.19;5042635;28;20056;-70
2022/11/20 00:10:41;;;;;;;17.02;15.68;;;;;;;7.43;58.85;101200.59;5055963;28;20032;-69
2022/11/20 00:13:07;;;;;;;18.25;16.95;;;;;;;7.43;58.77;101198.72;5036551;28;20037;-68
2022/11/20 00:15:33;;;;;;;19.20;17.60;;;;;;;7.41;58.53;101199.97;5035405;28;20045;-68
2022/11/20 00:17:58;;;;;;;20.15;18.35;;;;;;;7.40;58.44;101206.41;5047124;28;20052;-70
2022/11/20 00:20:24;;;;;;;20.60;18.92;;;;;;;7.39;58.37;101210.13;5055746;28;20516;-71
2022/11/20 00:22:49;;;;;;;19.45;17.88;;;;;;;7.36;58.40;101196.06;5051122;28;20095;-70
2022/11/20 00:25:15;;;;;;;17.70;16.38;;;;;;;7.36;58.62;101208.69;5036754;28;20112;-70
2022/11/20 00:27:40;;;;;;;18.35;16.90;;;;;;;7.34;58.71;101208.88;5051262;28;20155;-70
2022/11/20 00:30:06;;;;;;;17.92;16.50;;;;;;;7.33;58.66;101198.34;5064025;28;20669;-70
2022/11/20 00:32:32;;;;;;;19.13;17.33;;;;;;;7.31;58.64;101206.63;5054447;28;20068;-70
2022/11/20 00:34:57;;;;;;;19.75;18.15;;;;;;;7.31;58.61;101203.94;5047537;28;20561;-70
2022/11/20 00:37:23;;;;;;;19.88;18.42;;;;;;;7.29;58.74;101206.00;5054235;28;20044;-70
2022/11/20 00:39:48;;;;;;;20.13;18.63;;;;;;;7.29;58.51;101206.00;5052098;28;20057;-74
2022/11/20 00:42:13;;;;;;;18.20;16.77;;;;;;;7.27;58.45;101197.31;5039596;28;20394;-71
2022/11/20 00:44:39;;;;;;;19.70;18.30;;;;;;;7.26;58.23;101203.75;5054897;28;20374;-70
2022/11/20 00:47:04;;;;;;;20.90;19.25;;;;;;;7.24;58.38;101194.25;5042169;28;20025;-71
2022/11/20 00:49:29;;;;;;;17.35;15.88;;;;;;;7.23;58.51;101189.88;5051280;28;20041;-70
2022/11/20 00:51:55;;;;;;;20.02;18.42;;;;;;;7.22;58.66;101197.13;5053348;28;20043;-70
2022/11/20 00:54:20;;;;;;;17.05;15.73;;;;;;;7.21;58.54;101200.03;5043068;28;20469;-70
2022/11/20 00:56:46;;;;;;;19.13;17.60;;;;;;;7.20;58.66;101199.19;5050198;28;20075;-70
2022/11/20 00:59:11;;;;;;;17.38;15.98;;;;;;;7.19;58.45;101207.47;5047751;28;20106;-70
2022/11/20 01:01:37;;;;;;;17.55;15.82;;;;;;;7.18;58.61;101205.81;5051219;28;20040;-70
2022/11/20 01:04:02;;;;;;;18.38;16.88;;;;;;;7.16;58.38;101197.97;5052484;28;20037;-70
2022/11/20 01:06:34;;;;;;;18.38;16.67;;;;;;;7.15;58.44;101199.00;5053416;28;20503;-70
2022/11/20 01:09:05;;;;;;;20.85;18.85;;;;;;;7.13;58.58;101195.69;5048116;28;20498;-70
2022/11/20 01:11:34;;;;;;;18.38;16.60;;;;;;;7.11;58.43;101190.53;5042843;28;20026;-70
2022/11/20 01:14:01;;;;;;;20.45;18.63;;;;;;;7.11;58.34;101189.72;5033355;28;20453;-70
2022/11/20 01:16:33;;;;;;;19.42;17.73;;;;;;;7.08;58.17;101188.28;5034610;28;20025;-70
2022/11/20 01:19:01;;;;;;;19.65;17.90;;;;;;;7.08;58.43;101190.97;5034355;28;20048;-70
2022/11/20 01:21:30;;;;;;;17.60;15.90;;;;;;;7.07;58.51;101196.53;5044040;28;20040;-70
2022/11/20 01:23:57;;;;;;;19.58;17.70;;;;;;;7.04;58.56;101189.72;5065827;28;20112;-70
2022/11/20 01:26:24;;;;;;;18.73;17.15;;;;;;;7.06;58.32;101203.75;5034646;28;20091;-69
2022/11/20 01:28:50;;;;;;;18.75;17.20;;;;;;;7.02;58.24;101205.19;5033997;28;20381;-69
2022/11/20 01:31:24;;;;;;;20.20;18.33;;;;;;;7.02;58.28;101201.69;5032828;28;20033;-69
2022/11/20 01:33:52;;;;;;;17.55;16.15;;;;;;;7.01;58.45;101200.88;5034398;28;20037;-69
2022/11/20 01:36:19;;;;;;;18.98;17.52;;;;;;;7.00;58.28;101204.56;5033790;28;20112;-69
2022/11/20 01:38:45;;;;;;;18.25;16.75;;;;;;;6.98;58.06;101203.97;5034082;28;20037;-69
2022/11/20 01:43:20;;;;;;;19.80;18.00;;;;;;;6.97;58.19;101191.56;5051439;28;20102;-69
2022/11/20 01:43:58;;;;;;;18.33;16.63;;;;;;;6.96;58.42;101197.16;5041270;28;20037;-69
2022/11/20 01:46:24;;;;;;;17.92;16.42;;;;;;;6.93;58.53;101196.53;5051175;28;20535;-70
2022/11/20 01:49:10;;;;;;;19.35;17.90;;;;;;;6.93;58.23;101190.34;5052413;28;20040;-70
2022/11/20 01:51:43;;;;;;;17.90;16.35;;;;;;;6.91;58.45;101198.59;5053190;28;20029;-70
2022/11/20 01:54:16;;;;;;;18.80;16.83;;;;;;;6.89;58.34;101197.97;5033605;28;20039;-70
2022/11/20 01:56:45;;;;;;;18.58;16.73;;;;;;;6.89;57.99;101199.84;5045517;28;20476;-70
2022/11/20 01:59:14;;;;;;;18.75;17.13;;;;;;;6.88;58.26;101200.91;5046623;28;20087;-70
2022/11/20 02:01:39;;;;;;;19.10;17.60;;;;;;;6.87;58.37;101193.84;5043879;28;20100;-70
2022/11/20 02:04:07;;;;;;;18.55;17.05;;;;;;;6.85;58.14;101191.34;5046085;28;20052;-70
2022/11/20 02:06:39;;;;;;;18.08;16.48;;;;;;;6.84;58.49;101189.72;5052367;28;20052;-70
2022/11/20 02:09:04;;;;;;;19.50;17.98;;;;;;;6.83;58.45;101187.22;5037715;28;20444;-70
2022/11/20 02:11:31;;;;;;;18.10;16.73;;;;;;;6.83;58.24;101185.41;5039436;28;20115;-70
2022/11/20 02:13:56;;;;;;;18.45;16.63;;;;;;;6.82;58.07;101188.28;5035888;28;20029;-70
2022/11/20 02:16:29;;;;;;;18.05;16.52;;;;;;;6.81;58.17;101194.69;5033208;28;20029;-71
2022/11/20 02:18:58;;;;;;;18.08;16.70;;;;;;;6.79;58.22;101192.19;5033691;28;20485;-70
2022/11/20 02:21:36;;;;;;;17.67;16.15;;;;;;;6.79;58.17;101186.84;5033067;28;20037;-71
2022/11/20 02:24:11;;;;;;;17.75;16.17;;;;;;;6.77;58.21;101177.31;5038827;28;20021;-74
2022/11/20 02:26:50;;;;;;;17.88;16.35;;;;;;;6.75;57.93;101190.94;5036912;28;20124;-71
2022/11/20 02:29:19;;;;;;;20.35;18.45;;;;;;;6.74;58.47;101185.81;5034879;28;20084;-70
2022/11/20 02:31:45;;;;;;;17.73;16.27;;;;;;;6.73;58.33;101179.63;5033176;28;20470;-71
2022/11/20 02:34:10;;;;;;;20.30;18.30;;;;;;;6.73;58.25;101179.63;5032865;28;20038;-70
2022/11/20 02:36:38;;;;;;;16.25;14.95;;;;;;;6.72;58.43;101177.94;5038808;28;20104;-71
2022/11/20 02:39:04;;;;;;;19.75;18.23;;;;;;;6.70;58.42;101180.84;5042894;28;20056;-71
2022/11/20 02:41:35;;;;;;;18.30;16.77;;;;;;;6.70;58.15;101174.63;5033279;28;20112;-71
2022/11/20 02:44:01;;;;;;;17.90;16.50;;;;;;;6.68;58.03;101169.50;5037219;28;20044;-71
2022/11/20 02:46:26;;;;;;;19.70;18.00;;;;;;;6.68;58.21;101165.97;5048814;28;20041;-70
2022/11/20 02:48:52;;;;;;;19.70;17.40;;;;;;;6.67;58.29;101167.81;5048380;28;20547;-71
2022/11/20 02:51:17;;;;;;;19.92;17.95;;;;;;;6.67;58.14;101170.50;5036629;28;20073;-72
2022/11/20 02:53:42;;;;;;;21.48;19.38;;;;;;;6.66;57.98;101168.88;5033280;28;20017;-71
2022/11/20 02:56:08;;;;;;;17.98;16.38;;;;;;;6.65;58.09;101164.53;5060789;28;20083;-73
2022/11/20 02:58:33;;;;;;;17.38;15.88;;;;;;;6.64;58.44;101168.25;5047241;28;20381;-71
2022/11/20 03:00:58;;;;;;;20.60;18.85;;;;;;;6.64;58.11;101162.06;5039804;28;20416;-71
2022/11/20 03:03:24;;;;;;;19.08;17.40;;;;;;;6.62;58.45;101156.06;5045155;28;20389;-70
2022/11/20 03:05:49;;;;;;;18.02;16.65;;;;;;;6.63;57.96;101155.03;5045206;28;20068;-71
2022/11/20 03:08:14;;;;;;;18.10;16.42;;;;;;;6.61;58.01;101152.56;5043238;28;20032;-71
2022/11/20 03:10:40;;;;;;;18.67;17.08;;;;;;;6.62;57.96;101156.06;5044051;28;20285;-71
2022/11/20 03:13:05;;;;;;;17.55;16.15;;;;;;;6.60;58.05;101150.91;5032398;28;20037;-73
2022/11/20 03:15:31;;;;;;;17.48;15.85;;;;;;;6.59;58.07;101146.56;5032796;28;20086;-71
2022/11/20 03:17:56;;;;;;;18.60;17.00;;;;;;;6.59;58.25;101148.41;5032641;28;20065;-70
2022/11/20 03:20:22;;;;;;;20.77;18.70;;;;;;;6.57;58.07;101145.94;5045352;28;20037;-70
2022/11/20 03:22:47;;;;;;;17.75;16.25;;;;;;;6.58;58.13;101141.41;5035451;28;20040;-70
2022/11/20 03:25:13;;;;;;;17.30;15.63;;;;;;;6.57;58.31;101137.06;5046636;28;20132;-71
2022/11/20 03:27:38;;;;;;;17.13;15.60;;;;;;;6.56;58.44;101138.94;5041860;28;20120;-71
2022/11/20 03:30:05;;;;;;;18.17;16.67;;;;;;;6.55;57.90;101142.66;5047462;28;20040;-69
2022/11/20 03:32:31;;;;;;;16.38;14.90;;;;;;;6.55;58.02;101136.44;5032014;28;20597;-70
2022/11/20 03:34:56;;;;;;;18.10;16.60;;;;;;;6.54;58.24;101138.31;5032375;28;20121;-70
2022/11/20 03:37:21;;;;;;;19.05;17.17;;;;;;;6.53;57.94;101130.44;5046874;28;20032;-70
2022/11/20 03:39:47;;;;;;;17.23;15.65;;;;;;;6.53;58.05;101125.06;5038347;28;20073;-70
2022/11/20 03:44:56;;;;;;;18.85;17.17;;;;;;;6.50;58.14;101119.13;5047035;28;20404;-72
2022/11/20 03:47:21;;;;;;;20.73;18.73;;;;;;;6.49;58.17;101106.72;5038590;28;20033;-70
2022/11/20 03:49:47;;;;;;;17.60;16.20;;;;;;;6.49;58.13;101111.25;5032099;28;20034;-70
2022/11/20 03:52:12;;;;;;;19.70;18.02;;;;;;;6.49;58.14;101113.94;5032579;28;20037;-70
2022/11/20 03:54:37;;;;;;;18.63;16.70;;;;;;;6.49;57.99;101122.81;5050848;28;20467;-70
2022/11/20 03:57:02;;;;;;;18.10;16.60;;;;;;;6.49;58.18;101119.31;5047390;28;20051;-70
2022/11/20 03:59:28;;;;;;;17.33;15.68;;;;;;;6.47;58.18;101119.50;5048208;28;20286;-70
2022/11/20 04:01:53;;;;;;;19.05;17.42;;;;;;;6.47;58.33;101111.44;5047306;28;20140;-71
2022/11/20 04:04:18;;;;;;;20.15;18.05;;;;;;;6.47;58.04;101110.63;5062685;28;20104;-71
2022/11/20 04:06:44;;;;;;;17.27;15.70;;;;;;;6.47;58.17;101107.94;5042575;28;20029;-71
2022/11/20 04:09:09;;;;;;;17.05;15.60;;;;;;;6.46;58.05;101103.63;5046770;28;20373;-71
2022/11/20 04:11:36;;;;;;;19.08;17.25;;;;;;;6.46;58.10;101100.94;5064534;28;20104;-69
2022/11/20 04:14:04;;;;;;;17.75;15.95;;;;;;;6.45;58.13;101108.16;5036253;28;20021;-69
2022/11/20 04:16:34;;;;;;;18.42;16.70;;;;;;;6.45;58.13;101110.00;5045770;28;20040;-70
2022/11/20 04:19:01;;;;;;;18.02;16.17;;;;;;;6.45;58.11;101102.81;5041047;28;20044;-70
2022/11/20 04:21:27;;;;;;;19.65;17.08;;;;;;;6.45;58.08;101104.63;5043871;28;20045;-70
2022/11/20 04:23:53;;;;;;;18.40;16.77;;;;;;;6.44;58.26;101111.06;5039793;28;20064;-70
2022/11/20 04:26:20;;;;;;;19.45;17.42;;;;;;;6.43;58.33;101112.09;5046692;28;20095;-70
2022/11/20 04:28:45;;;;;;;17.25;15.70;;;;;;;6.44;58.01;101103.81;5043134;28;20465;-70
2022/11/20 04:31:14;;;;;;;17.75;15.85;;;;;;;6.42;58.25;101100.50;5033256;28;20036;-75
2022/11/20 04:33:39;;;;;;;18.77;17.08;;;;;;;6.42;58.28;101097.00;5038890;28;20041;-70
2022/11/20 04:36:17;;;;;;;17.40;15.65;;;;;;;6.41;58.24;101101.56;5043240;28;20449;-70
2022/11/20 04:38:43;;;;;;;18.27;16.65;;;;;;;6.42;58.07;101094.31;5030851;28;20043;-69
2022/11/20 04:41:15;;;;;;;19.08;17.45;;;;;;;6.40;58.18;101089.19;5038370;28;20039;-70
2022/11/20 04:43:40;;;;;;;16.50;15.20;;;;;;;6.40;58.31;101089.19;5031509;28;20025;-69
2022/11/20 04:46:05;;;;;;;17.42;15.95;;;;;;;6.39;58.03;101076.78;5037280;28;20041;-70
2022/11/20 04:48:31;;;;;;;19.67;18.08;;;;;;;6.39;58.08;101078.66;5045793;28;20032;-69
2022/11/20 04:50:57;;;;;;;16.80;15.40;;;;;;;6.38;58.00;101075.13;5053832;28;20469;-69
2022/11/20 04:53:22;;;;;;;20.20;18.50;;;;;;;6.38;58.09;101077.00;5053675;28;20561;-69
2022/11/20 04:55:48;;;;;;;19.08;17.08;;;;;;;6.38;58.26;101071.63;5036045;28;20123;-69
2022/11/20 04:58:14;;;;;;;17.92;16.35;;;;;;;6.38;58.21;101079.69;5043750;28;20043;-72
2022/11/20 05:00:40;;;;;;;16.60;15.15;;;;;;;6.37;58.33;101075.34;5038415;28;20444;-69
2022/11/20 05:03:05;;;;;;;16.38;15.02;;;;;;;6.37;58.28;101073.47;5054040;28;20029;-69
2022/11/20 05:05:31;;;;;;;19.35;17.63;;;;;;;6.36;58.22;101071.84;5040019;28;20094;-69
2022/11/20 05:07:57;;;;;;;17.48;15.90;;;;;;;6.36;58.33;101074.50;5051401;28;20041;-69
2022/11/20 05:10:23;;;;;;;18.92;17.20;;;;;;;6.36;58.17;101076.38;5043751;28;20025;-69
2022/11/20 05:12:49;;;;;;;16.55;15.18;;;;;;;6.36;58.10;101071.00;5053045;28;20034;-69
2022/11/20 05:15:14;;;;;;;16.08;14.90;;;;;;;6.36;58.10;101069.16;5054437;28;20036;-69
2022/11/20 05:17:39;;;;;;;16.73;15.45;;;;;;;6.36;58.29;101068.34;5053345;28;20473;-69
2022/11/20 05:20:05;;;;;;;17.02;15.68;;;;;;;6.35;57.99;101069.34;5037896;28;20482;-69
2022/11/20 05:22:31;;;;;;;18.77;16.92;;;;;;;6.35;58.39;101066.66;5049560;28;20029;-68
2022/11/20 05:24:56;;;;;;;17.85;16.38;;;;;;;6.33;58.25;101058.84;5037680;28;20397;-69
2022/11/20 05:27:21;;;;;;;19.13;17.23;;;;;;;6.33;58.29;101068.75;5033770;28;20109;-70
2022/11/20 05:29:47;;;;;;;18.17;16.55;;;;;;;6.34;58.20;101065.84;5054655;28;20046;-69
2022/11/20 05:32:12;;;;;;;19.35;17.42;;;;;;;6.33;58.26;101071.44;5034296;28;20037;-70
2022/11/20 05:34:37;;;;;;;17.80;16.02;;;;;;;6.32;57.93;101065.22;5049141;28;20650;-70
2022/11/20 05:37:03;;;;;;;17.63;16.05;;;;;;;6.32;58.20;101057.16;5034469;28;20060;-70
2022/11/20 05:39:28;;;;;;;19.33;17.38;;;;;;;6.32;58.18;101067.91;5033669;28;20099;-69
2022/11/20 05:44:38;;;;;;;17.90;16.33;;;;;;;6.31;58.21;101068.13;5033487;28;20053;-70
2022/11/20 05:47:03;;;;;;;17.85;16.27;;;;;;;6.31;58.26;101068.13;5046393;28;20033;-70
2022/11/20 05:49:28;;;;;;;18.70;17.02;;;;;;;6.31;58.25;101076.16;5046170;28;20065;-71
2022/11/20 05:51:54;;;;;;;18.52;17.00;;;;;;;6.30;58.26;101083.41;5048594;28;20439;-70
2022/11/20 05:54:19;;;;;;;17.10;15.35;;;;;;;6.30;58.39;101086.09;5042629;28;20063;-74
2022/11/20 05:56:44;;;;;;;17.33;15.75;;;;;;;6.31;58.16;101076.16;5050231;28;20085;-71
2022/11/20 05:59:10;;;;;;;17.95;16.13;;;;;;;6.29;58.20;101077.19;5058488;28;20052;-70
2022/11/20 06:01:36;;;;;;;17.27;15.73;;;;;;;6.29;58.11;101087.09;5061529;28;20086;-70
2022/11/20 06:04:02;;;;;;;18.92;17.33;;;;;;;6.28;58.29;101080.09;5038510;28;20074;-70
2022/11/20 06:06:27;;;;;;;18.80;17.10;;;;;;;6.29;58.23;101084.41;5049117;28;20052;-70
2022/11/20 06:08:54;;;;;;;17.00;15.45;;;;;;;6.28;58.24;101083.59;5053082;28;20033;-70
2022/11/20 06:11:20;;;;;;;16.83;15.20;;;;;;;6.28;58.12;101082.78;5047314;28;20128;-70
2022/11/20 06:13:46;;;;;;;16.77;15.38;;;;;;;6.28;58.25;101083.59;5039045;28;20104;-71
2022/11/20 06:16:14;;;;;;;16.70;15.38;;;;;;;6.27;58.05;101079.28;5038078;28;20389;-71
2022/11/20 06:18:40;;;;;;;18.53;16.87;;;;;;;6.27;58.22;101063.19;5047150;28;20053;-70
2022/11/20 06:21:07;;;;;;;18.05;16.13;;;;;;;6.26;58.28;101066.88;5038812;28;20053;-70
2022/11/20 06:23:34;;;;;;;18.55;17.00;;;;;;;6.27;58.10;101062.31;5059432;28;20514;-70
2022/11/20 06:26:11;;;;;;;16.98;15.48;;;;;;;6.26;58.18;101066.88;5043816;28;20056;-70
2022/11/20 06:28:37;;;;;;;18.77;17.13;;;;;;;6.26;58.08;101064.19;5036816;28;20033;-70
2022/11/20 06:31:03;;;;;;;19.02;17.63;;;;;;;6.26;58.21;101060.69;5039728;28;20031;-71
2022/11/20 06:33:29;;;;;;;18.50;16.73;;;;;;;6.25;58.36;101053.69;5047446;28;20127;-71
2022/11/20 06:35:59;;;;;;;17.02;15.45;;;;;;;6.25;58.04;101051.00;5036902;28;20029;-71
2022/11/20 06:38:25;;;;;;;18.00;16.52;;;;;;;6.25;58.21;101056.38;5032895;28;20448;-73
2022/11/20 06:40:53;;;;;;;17.58;16.02;;;;;;;6.24;57.98;101055.53;5044846;28;20060;-71
2022/11/20 06:43:18;;;;;;;17.58;15.98;;;;;;;6.24;58.15;101052.84;5044269;28;20051;-71
2022/11/20 06:45:43;;;;;;;19.10;17.17;;;;;;;6.23;58.35;101061.13;5016147;28;20728;-70
2022/11/20 06:48:09;;;;;;;18.13;16.33;;;;;;;6.23;58.33;101064.59;5046934;28;20037;-70
2022/11/20 06:50:36;;;;;;;17.08;15.50;;;;;;;6.24;58.15;101057.38;5034389;28;20454;-71
2022/11/20 06:53:02;;;;;;;17.92;16.48;;;;;;;6.23;58.49;101058.44;5051183;28;20029;-71
2022/11/20 06:55:28;;;;;;;19.50;17.92;;;;;;;6.22;58.36;101057.59;5051555;28;20090;-74
2022/11/20 06:57:53;;;;;;;17.40;15.90;;;;;;;6.22;58.03;101048.72;5050294;28;20033;-71
2022/11/20 07:00:19;;;;;;;16.88;15.40;;;;;;;6.22;58.24;101046.03;5037231;28;20440;-71
2022/11/20 07:02:44;;;;;;;17.55;16.13;;;;;;;6.21;58.18;101057.81;5049361;28;20094;-71
2022/11/20 07:05:10;;;;;;;17.75;16.23;;;;;;;6.21;58.21;101055.13;5037728;28;20401;-70
2022/11/20 07:07:35;;;;;;;19.75;17.95;;;;;;;6.21;58.05;101044.38;5037110;28;20029;-71
2022/11/20 07:10:00;;;;;;;17.42;15.65;;;;;;;6.19;58.33;101039.22;5038553;28;20488;-70
2022/11/20 07:12:25;;;;;;;16.20;14.82;;;;;;;6.19;58.31;101035.72;5045147;28;20041;-70
2022/11/20 07:14:51;;;;;;;18.20;16.75;;;;;;;6.18;58.31;101042.94;5039182;28;20134;-70
2022/11/20 07:17:16;;;;;;;16.65;15.35;;;;;;;6.18;58.29;101039.44;5044730;28;20120;-70
2022/11/20 07:19:42;;;;;;;18.55;16.67;;;;;;;6.18;58.32;101039.44;5032193;28;20033;-70
2022/11/20 07:22:08;;;;;;;17.95;16.42;;;;;;;6.18;58.35;101031.41;5032408;28;20493;-70
2022/11/20 07:24:33;;;;;;;17.95;16.42;;;;;;;6.17;58.24;101025.19;5037263;28;20071;-70
2022/11/20 07:26:59;;;;;;;16.42;15.20;;;;;;;6.17;58.45;101032.41;5032055;28;20038;-70
2022/11/20 07:29:24;;;;;;;18.05;16.30;;;;;;;6.16;58.05;101041.50;5048841;28;20104;-71
2022/11/20 07:31:49;;;;;;;17.52;15.80;;;;;;;6.16;58.29;101030.78;5033642;28;20658;-71
2022/11/20 07:34:15;;;;;;;18.25;16.25;;;;;;;6.15;58.39;101039.84;5032077;28;20378;-70
2022/11/20 07:36:40;;;;;;;19.63;17.92;;;;;;;6.15;58.31;101039.84;5032209;28;20105;-70
2022/11/20 07:39:05;;;;;;;17.10;15.77;;;;;;;6.15;58.39;101053.25;5031676;28;20402;-70
2022/11/20 07:41:31;;;;;;;16.23;14.73;;;;;;;6.14;58.08;101048.94;5046161;28;20037;-73
2022/11/20 07:43:56;;;;;;;18.23;16.52;;;;;;;6.14;58.34;101048.94;5047002;28;20033;-69
2022/11/20 07:46:22;;;;;;;17.02;15.63;;;;;;;6.13;58.20;101042.75;5033647;28;20042;-70
2022/11/20 07:48:47;;;;;;;19.85;18.05;;;;;;;6.13;58.10;101033.88;5049525;28;20025;-70
2022/11/20 07:51:13;;;;;;;17.10;15.50;;;;;;;6.13;58.03;101041.91;5041753;28;20037;-69
2022/11/20 07:53:39;;;;;;;17.05;15.55;;;;;;;6.11;58.22;101042.13;5050599;28;20029;-71
2022/11/20 07:56:04;;;;;;;19.83;17.88;;;;;;;6.10;58.28;101043.16;5035756;28;20120;-70
2022/11/20 07:58:32;;;;;;;16.45;14.95;;;;;;;6.10;58.46;101051.19;5046435;28;20394;-70
2022/11/20 08:00:58;;;;;;;16.55;15.25;;;;;;;6.09;58.32;101049.53;5038711;28;20425;-70
2022/11/20 08:03:23;;;;;;;17.98;16.08;;;;;;;6.10;58.51;101061.09;5032851;28;20036;-71
2022/11/20 08:05:49;;;;;;;17.95;16.42;;;;;;;6.09;57.97;101044.16;5034937;28;20480;-70
2022/11/20 08:08:14;;;;;;;17.63;16.02;;;;;;;6.09;57.99;101054.91;5041932;28;20041;-72
2022/11/20 08:10:39;;;;;;;19.52;17.83;;;;;;;6.09;58.14;101051.41;5040757;28;20032;-70
2022/11/20 08:15:52;;;;;;;16.75;15.25;;;;;;;6.06;58.34;101056.13;5031743;28;20191;-70
2022/11/20 08:18:18;;;;;;;;;;;;;;;6.07;58.26;101056.97;5040744;28;20071;-69
2022/11/20 08:20:43;;;;;;;19.50;17.83;;;;;;;6.05;58.10;101051.00;5036878;28;19971;-69
2022/11/20 08:23:09;;;;;;;18.35;16.77;;;;;;;6.04;58.07;101052.00;5052171;28;20037;-70
2022/11/20 08:25:38;;;;;;;17.63;16.17;;;;;;;6.04;58.22;101054.69;5055217;28;20021;-70
2022/11/20 08:28:05;;;;;;;;;;;;;;;6.04;58.02;101052.00;5051945;28;20490;-69
2022/11/20 08:30:31;;;;;;;15.68;14.35;;;;;;;6.03;58.09;101047.69;5053945;28;19913;-70
2022/11/20 08:33:04;;;;;;;17.40;15.98;;;;;;;6.02;58.20;101052.22;5042362;28;20040;-70
2022/11/20 08:35:34;;;;;;;17.10;15.48;;;;;;;6.02;58.26;101048.69;5038880;28;20032;-71
2022/11/20 08:38:02;;;;;;;16.45;14.75;;;;;;;6.02;58.17;101054.06;5053772;28;20029;-70
2022/11/20 08:40:27;;;;;;;17.48;15.88;;;;;;;6.03;57.99;101058.41;5047322;28;20046;-70
2022/11/20 08:42:53;;;;;;;18.80;17.08;;;;;;;6.03;58.16;101050.38;5048933;28;20064;-70
2022/11/20 08:45:18;;;;;;;18.75;17.05;;;;;;;6.04;58.28;101052.81;5040510;28;20029;-70
2022/11/20 08:47:44;;;;;;;19.20;17.40;;;;;;;6.03;58.00;101050.38;5037131;28;20425;-71
2022/11/20 08:50:14;;;;;;;18.23;16.17;;;;;;;6.04;58.46;101046.66;5052925;28;20120;-70
2022/11/20 08:52:40;;;;;;;18.15;16.55;;;;;;;6.04;57.95;101036.75;5040979;28;20041;-71
2022/11/20 08:55:06;;;;;;;18.42;16.83;;;;;;;6.03;58.47;101040.47;5035301;28;20389;-70
2022/11/20 08:57:33;;;;;;;17.90;16.33;;;;;;;6.05;58.35;101040.28;5043264;28;20029;-71
2022/11/20 08:59:59;;;;;;;16.08;14.65;;;;;;;6.05;58.14;101029.53;5041601;28;20138;-68
2022/11/20 09:02:24;;;;;;;17.08;15.82;;;;;;;6.05;58.22;101040.28;5047008;28;20036;-70
2022/11/20 09:04:49;;;;;;;18.92;17.33;;;;;;;6.05;58.39;101040.28;5036525;28;20105;-70
2022/11/20 09:07:15;;;;;;;18.23;16.42;;;;;;;6.06;58.21;101028.50;5053408;28;20051;-70
2022/11/20 09:09:40;;;;;;;17.30;15.95;;;;;;;6.06;58.11;101031.19;5047019;28;20037;-73
2022/11/20 09:12:05;;;;;;;19.17;17.50;;;;;;;6.07;58.24;101028.31;5049888;28;20139;-69
2022/11/20 09:14:31;;;;;;;17.48;15.98;;;;;;;6.06;58.16;101015.91;5044964;28;20119;-70
2022/11/20 09:16:56;;;;;;;18.92;17.35;;;;;;;6.05;58.32;101006.22;5040787;28;20045;-71
2022/11/20 09:19:24;;;;;;;17.98;16.35;;;;;;;6.07;58.13;101006.84;5035278;28;20140;-71
2022/11/20 09:21:49;;;;;;;17.92;16.23;;;;;;;6.07;58.47;101006.84;5051577;28;20061;-71
2022/11/20 09:24:14;;;;;;;18.77;16.63;;;;;;;6.06;58.46;100999.81;5049266;28;20565;-71
2022/11/20 09:26:40;;;;;;;17.13;15.75;;;;;;;6.07;58.07;100993.44;5049069;28;20025;-72
2022/11/20 09:34:16;;;;;;;25.27;21.20;;;;;;;6.07;58.22;100984.53;5603685;23;20062;-71
2022/11/20 09:36:41;;;;;;;20.52;18.52;;;;;;;6.08;58.38;100980.84;4976607;28;20054;-73
2022/11/20 09:39:07;;;;;;;19.67;17.83;;;;;;;6.09;58.45;100977.13;4978755;28;20121;-73
2022/11/20 09:41:49;;;;;;;19.88;17.90;;;;;;;6.09;58.31;100970.94;4995269;28;20030;-75
2022/11/20 09:45:02;;;;;;;20.50;18.00;;;;;;;6.09;58.61;100968.25;4996679;28;20030;-75
2022/11/20 09:47:41;;;;;;;18.60;16.83;;;;;;;6.09;58.35;100955.66;4973596;28;20108;-76
2022/11/20 09:50:47;;;;;;;18.30;16.65;;;;;;;6.09;58.61;100958.34;5011310;28;20481;-76
2022/11/20 09:54:08;;;;;;;18.90;16.85;;;;;;;6.09;58.55;100942.25;4992426;28;20041;-76
2022/11/20 09:56:39;;;;;;;19.08;17.20;;;;;;;6.09;58.30;100939.56;4954776;29;20042;-75
2022/11/20 09:59:07;;;;;;;18.48;16.70;;;;;;;6.09;58.19;100928.84;4954769;29;20037;-75
2022/11/20 10:01:36;;;;;;;19.90;17.83;;;;;;;6.09;58.36;100920.00;4980336;28;20038;-75
2022/11/20 10:04:04;;;;;;;;;;;;;;;6.10;58.59;100918.94;5011063;28;20026;-76
2022/11/20 10:06:39;;;;;;;18.67;17.02;;;;;;;6.09;58.22;100912.75;4994316;28;20268;-76
2022/11/20 10:09:31;;;;;;;19.90;18.00;;;;;;;6.10;58.31;100918.94;4995952;28;20030;-75
2022/11/20 10:12:13;;;;;;;17.15;15.65;;;;;;;6.10;58.31;100916.25;4995639;28;20034;-75
2022/11/20 10:14:50;;;;;;;18.90;17.08;;;;;;;6.10;58.42;100910.91;4996022;28;20109;-75
2022/11/20 10:17:42;;;;;;;19.58;17.52;;;;;;;6.10;58.28;100909.06;5010952;28;20386;-75
2022/11/20 10:20:26;;;;;;;20.00;17.17;;;;;;;6.13;58.49;100910.50;4994457;28;20034;-75
2022/11/20 10:23:16;;;;;;;18.73;16.95;;;;;;;6.12;58.45;100906.97;5010562;28;20031;-75
2022/11/20 10:25:51;;;;;;;18.60;16.88;;;;;;;6.13;58.16;100905.97;4995515;28;20051;-74
2022/11/20 10:28:26;;;;;;;19.95;17.85;;;;;;;6.14;58.35;100893.38;5010858;28;20446;-75
2022/11/20 10:31:02;;;;;;;19.83;16.88;;;;;;;6.13;58.65;100887.19;4993981;28;20026;-75
2022/11/20 10:33:32;;;;;;;19.35;17.48;;;;;;;6.14;58.51;100879.97;4994624;28;20033;-75
2022/11/20 10:36:11;;;;;;;18.98;17.27;;;;;;;6.15;58.39;100873.53;4984465;28;20042;-74
2022/11/20 10:38:40;;;;;;;;;;;;;;;6.15;58.41;100870.84;4995831;28;20472;-74
2022/11/20 10:41:24;;;;;;;17.52;15.85;;;;;;;6.13;58.35;100865.72;4995037;28;19914;-74
2022/11/20 10:43:58;;;;;;;18.40;16.67;;;;;;;6.13;58.70;100852.31;4995063;28;20034;-74
2022/11/20 10:46:25;;;;;;;19.90;17.95;;;;;;;6.13;58.55;100851.50;5009577;28;20113;-73
2022/11/20 10:48:51;;;;;;;18.58;16.48;;;;;;;6.13;58.89;100841.59;4994844;28;20068;-77
2022/11/20 10:51:29;;;;;;;20.05;17.95;;;;;;;6.13;58.76;100841.59;4995387;28;20027;-78
2022/11/20 10:54:15;;;;;;;21.88;17.35;;;;;;;6.16;58.51;100853.75;4995195;28;20126;-78
2022/11/20 10:56:50;;;;;;;23.05;19.40;;;;;;;6.15;58.67;100854.78;5009849;28;20072;-78
2022/11/20 10:59:43;;;;;;;22.25;18.00;;;;;;;6.16;58.74;100843.03;4995238;28;20034;-78
2022/11/20 11:02:21;;;;;;;21.70;17.98;;;;;;;6.15;58.74;100842.22;4993140;28;20517;-79
2022/11/20 11:04:50;;;;;;;17.88;16.20;;;;;;;6.15;58.66;100836.00;4993805;28;20057;-79
2022/11/20 11:07:35;;;;;;;20.42;18.35;;;;;;;6.16;58.94;100833.13;4994717;28;20085;-79
2022/11/20 11:10:00;;;;;;;19.70;16.58;;;;;;;6.15;58.67;100815.38;4994526;28;20026;-79
2022/11/20 11:12:28;;;;;;;18.33;16.50;;;;;;;6.17;58.61;100820.53;4993391;28;20462;-80
2022/11/20 11:14:55;;;;;;;19.88;17.45;;;;;;;6.18;59.01;100820.31;4994431;28;20034;-79
2022/11/20 11:17:32;;;;;;;20.45;18.33;;;;;;;6.18;58.71;100814.13;4994237;28;20026;-79
2022/11/20 11:20:03;;;;;;;18.10;16.35;;;;;;;6.19;59.09;100813.09;4992709;28;20054;-79
2022/11/20 11:22:34;;;;;;;17.55;15.73;;;;;;;6.20;58.90;100812.91;5009300;28;20556;-80
2022/11/20 11:25:00;;;;;;;24.00;18.77;;;;;;;6.21;58.87;100808.34;4995092;28;20028;-79
2022/11/20 11:27:26;;;;;;;21.35;18.70;;;;;;;6.22;58.82;100810.81;4994538;28;20026;-79
2022/11/20 11:30:03;;;;;;;19.95;17.70;;;;;;;6.23;59.11;100796.38;4993439;28;20034;-80
2022/11/20 11:32:29;;;;;;;21.83;19.55;;;;;;;6.25;59.22;100790.81;4997201;28;20026;-82
2022/11/20 11:35:23;;;;;;;21.27;18.88;;;;;;;6.27;59.05;100794.06;4983177;28;20061;-81
2022/11/20 11:37:50;;;;;;;19.92;16.85;;;;;;;6.26;58.78;100790.56;4993951;28;20108;-81